Buoy 52609

sailwx.info

Track history (hours):
 
Tides and Currents Weather Stations Pressure Air Temp Water Temp Dewpoint Dewpoint Depression Visibility Wind Speed Wind Dir Waves Ship Positions

Drifting buoy 52609

Last reported at 2015-Aug-03 13:00 UTC. Time now 2015-Aug-03 17:16 UTC.
Position N 21°38' E 126°47'.

Water temperature 30.1 ° C

Date/timePositionNaut miles runAvg speedWind from/ knotsBaromVisibWave heightAir tempDewpointWater temp
2015-Aug-03 13:00N 21°38' E 126°47'2 2.4 30.1
2015-Aug-03 12:00N 21°40' E 126°47'4 1.2 30.2
2015-Aug-03 09:00N 21°44' E 126°45'3 1.4 30.5
2015-Aug-03 07:00N 21°46' E 126°44'3 3.3 30.4
2015-Aug-03 06:00N 21°48' E 126°41'0 0.1 30.6
2015-Aug-03 05:00N 21°48' E 126°41'0 0.0 30.7
2015-Aug-03 04:00N 21°48' E 126°41'1 0.5 30.4
2015-Aug-03 02:00N 21°48' E 126°40'0 0.0 30.2
2015-Aug-03 00:00N 21°48' E 126°40'6 1.4 29.8
2015-Aug-02 20:00N 21°51' E 126°45'2 1.0 29.7
2015-Aug-02 18:00N 21°52' E 126°47'6 1.5 29.7
2015-Aug-02 14:00N 21°58' E 126°49'4 1.4 29.8
2015-Aug-02 11:00N 22°02' E 126°49'2 0.9 29.8
2015-Aug-02 09:00N 22°04' E 126°49'5 0.7 29.9
2015-Aug-02 01:00N 22°09' E 126°48'1 0.3 29.6
2015-Aug-01 23:00N 22°09' E 126°48'0 0.0 29.5
2015-Aug-01 22:00N 22°09' E 126°48'1 0.7 29.4
2015-Aug-01 21:00N 22°10' E 126°49'0 0.5 29.4
2015-Aug-01 20:00N 22°10' E 126°49'1 0.5 29.4
2015-Aug-01 18:00N 22°10' E 126°50'0 0.0 29.4
2015-Aug-01 17:00N 22°10' E 126°50'5 1.3 29.4
2015-Aug-01 13:00N 22°14' E 126°54'1 0.8 29.4
2015-Aug-01 12:00N 22°15' E 126°54'3 0.7 29.4
2015-Aug-01 08:00N 22°17' E 126°55'0 0.0 29.5
2015-Aug-01 07:00N 22°17' E 126°55'5 0.5 29.6
2015-Jul-31 21:00N 22°22' E 126°57'1 0.4 29.3
2015-Jul-31 19:00N 22°21' E 126°58'5 0.6 29.3
2015-Jul-31 11:00N 22°22' E 127°03'1 0.4 29.3
2015-Jul-31 09:00N 22°22' E 127°03'2 0.7 29.6
2015-Jul-31 06:00N 22°22' E 127°06'1 0.6 29.7
2015-Jul-31 05:00N 22°23' E 127°06'0 0.1 29.7
2015-Jul-31 04:00N 22°23' E 127°06'2 0.5 29.6
2015-Jul-31 00:00N 22°22' E 127°04'1 0.2 29.3
2015-Jul-30 21:00N 22°22' E 127°04'1 0.8 29.3
2015-Jul-30 20:00N 22°21' E 127°04'2 1.6 29.3
2015-Jul-30 19:00N 22°19' E 127°05'2 1.1 29.3
2015-Jul-30 17:00N 22°18' E 127°06'6 0.6 29.4
2015-Jul-30 06:00N 22°15' E 127°12'0 0.0 30.7
2015-Jul-30 05:00N 22°15' E 127°12'1 0.4 30.7
2015-Jul-30 02:00N 22°14' E 127°11'4 0.9 29.9
2015-Jul-29 21:00N 22°10' E 127°09'1 1.4 29.2
2015-Jul-29 20:00N 22°08' E 127°10'4 1.3 29.2
2015-Jul-29 17:00N 22°05' E 127°11'0 0.0 29.2
2015-Jul-29 16:00N 22°05' E 127°11'5 0.9 29.2
2015-Jul-29 11:00N 22°01' E 127°13'3 0.8 29.5
2015-Jul-29 07:00N 21°57' E 127°13'10 1.0 30.0
2015-Jul-28 21:00N 21°48' E 127°13'1 0.7 29.2
2015-Jul-28 19:00N 21°46' E 127°13'2 1.5 29.2
2015-Jul-28 18:00N 21°45' E 127°13'7 1.0 29.3
2015-Jul-28 11:00N 21°38' E 127°10'0 0.0 29.8
2015-Jul-28 09:00N 21°38' E 127°10'2 0.8 30.1
2015-Jul-28 07:00N 21°37' E 127°09'8 0.7 30.3
2015-Jul-27 20:00N 21°30' E 127°05'0 0.5 29.0
2015-Jul-27 19:00N 21°30' E 127°04'4 0.4 29.1
2015-Jul-27 09:00N 21°31' E 127°00'3 0.7 30.0
2015-Jul-27 05:00N 21°31' E 126°57'5 0.8 29.9
2015-Jul-26 23:00N 21°31' E 126°52'0 0.0 28.9
2015-Jul-26 22:00N 21°31' E 126°52'1 0.6 28.9
2015-Jul-26 21:00N 21°31' E 126°53'1 0.9 28.9
2015-Jul-26 20:00N 21°31' E 126°52'1 0.2 28.9
2015-Jul-26 17:00N 21°31' E 126°51'0 0.0 29.0
2015-Jul-26 16:00N 21°31' E 126°51'2 0.6 29.0
2015-Jul-26 13:00N 21°33' E 126°52'1 0.5 29.1
2015-Jul-26 12:00N 21°33' E 126°53'3 0.9 29.1
2015-Jul-26 09:00N 21°36' E 126°52'1 0.7 29.2
2015-Jul-26 07:00N 21°37' E 126°51'2 1.2 29.2
2015-Jul-26 05:00N 21°39' E 126°50'3 0.5 29.1
2015-Jul-25 22:00N 21°41' E 126°47'2 0.6 28.8
2015-Jul-25 18:00N 21°43' E 126°48'0 0.1 28.9
2015-Jul-25 17:00N 21°43' E 126°48'2 0.6 28.9
2015-Jul-25 13:00N 21°45' E 126°48'3 0.7 29.0
2015-Jul-25 09:00N 21°48' E 126°47'0 0.0 29.5
2015-Jul-25 08:00N 21°48' E 126°47'0 0.2 29.6
2015-Jul-25 07:00N 21°48' E 126°47'1 0.9 29.7
2015-Jul-25 06:00N 21°49' E 126°47'0 0.0 29.7
2015-Jul-25 05:00N 21°49' E 126°47'4 0.6 29.7
2015-Jul-24 22:00N 21°53' E 126°49'0 0.0 29.0
2015-Jul-24 21:00N 21°53' E 126°49'1 0.5 29.0
2015-Jul-24 18:00N 21°54' E 126°50'0 0.0 29.1
2015-Jul-24 17:00N 21°54' E 126°50'   29.2
Track history (hours):
 
Tides and Currents Weather Stations Pressure Air Temp Water Temp Dewpoint Dewpoint Depression Visibility Wind Speed Wind Dir Waves Ship Positions

Drifting buoy 52609

Last reported at 2015-Aug-03 13:00 UTC. Time now 2015-Aug-03 17:16 UTC.
Position N 21°38' E 126°47'.

Water temperature 30.1 ° C

Date/timePositionNaut miles runAvg speedWind from/ knotsBaromVisibWave heightAir tempDewpointWater temp
2015-Aug-03 13:00N 21°38' E 126°47'2 2.4 30.1
2015-Aug-03 12:00N 21°40' E 126°47'4 1.2 30.2
2015-Aug-03 09:00N 21°44' E 126°45'3 1.4 30.5
2015-Aug-03 07:00N 21°46' E 126°44'3 3.3 30.4
2015-Aug-03 06:00N 21°48' E 126°41'0 0.1 30.6
2015-Aug-03 05:00N 21°48' E 126°41'0 0.0 30.7
2015-Aug-03 04:00N 21°48' E 126°41'1 0.5 30.4
2015-Aug-03 02:00N 21°48' E 126°40'0 0.0 30.2
2015-Aug-03 00:00N 21°48' E 126°40'6 1.4 29.8
2015-Aug-02 20:00N 21°51' E 126°45'2 1.0 29.7
2015-Aug-02 18:00N 21°52' E 126°47'6 1.5 29.7
2015-Aug-02 14:00N 21°58' E 126°49'4 1.4 29.8
2015-Aug-02 11:00N 22°02' E 126°49'2 0.9 29.8
2015-Aug-02 09:00N 22°04' E 126°49'5 0.7 29.9
2015-Aug-02 01:00N 22°09' E 126°48'1 0.3 29.6
2015-Aug-01 23:00N 22°09' E 126°48'0 0.0 29.5
2015-Aug-01 22:00N 22°09' E 126°48'1 0.7 29.4
2015-Aug-01 21:00N 22°10' E 126°49'0 0.5 29.4
2015-Aug-01 20:00N 22°10' E 126°49'1 0.5 29.4
2015-Aug-01 18:00N 22°10' E 126°50'0 0.0 29.4
2015-Aug-01 17:00N 22°10' E 126°50'5 1.3 29.4
2015-Aug-01 13:00N 22°14' E 126°54'1 0.8 29.4
2015-Aug-01 12:00N 22°15' E 126°54'3 0.7 29.4
2015-Aug-01 08:00N 22°17' E 126°55'0 0.0 29.5
2015-Aug-01 07:00N 22°17' E 126°55'5 0.5 29.6
2015-Jul-31 21:00N 22°22' E 126°57'1 0.4 29.3
2015-Jul-31 19:00N 22°21' E 126°58'5 0.6 29.3
2015-Jul-31 11:00N 22°22' E 127°03'1 0.4 29.3
2015-Jul-31 09:00N 22°22' E 127°03'2 0.7 29.6
2015-Jul-31 06:00N 22°22' E 127°06'1 0.6 29.7
2015-Jul-31 05:00N 22°23' E 127°06'0 0.1 29.7
2015-Jul-31 04:00N 22°23' E 127°06'2 0.5 29.6
2015-Jul-31 00:00N 22°22' E 127°04'1 0.2 29.3
2015-Jul-30 21:00N 22°22' E 127°04'1 0.8 29.3
2015-Jul-30 20:00N 22°21' E 127°04'2 1.6 29.3
2015-Jul-30 19:00N 22°19' E 127°05'2 1.1 29.3
2015-Jul-30 17:00N 22°18' E 127°06'6 0.6 29.4
2015-Jul-30 06:00N 22°15' E 127°12'0 0.0 30.7
2015-Jul-30 05:00N 22°15' E 127°12'1 0.4 30.7
2015-Jul-30 02:00N 22°14' E 127°11'4 0.9 29.9
2015-Jul-29 21:00N 22°10' E 127°09'1 1.4 29.2
2015-Jul-29 20:00N 22°08' E 127°10'4 1.3 29.2
2015-Jul-29 17:00N 22°05' E 127°11'0 0.0 29.2
2015-Jul-29 16:00N 22°05' E 127°11'5 0.9 29.2
2015-Jul-29 11:00N 22°01' E 127°13'3 0.8 29.5
2015-Jul-29 07:00N 21°57' E 127°13'10 1.0 30.0
2015-Jul-28 21:00N 21°48' E 127°13'1 0.7 29.2
2015-Jul-28 19:00N 21°46' E 127°13'2 1.5 29.2
2015-Jul-28 18:00N 21°45' E 127°13'7 1.0 29.3
2015-Jul-28 11:00N 21°38' E 127°10'0 0.0 29.8
2015-Jul-28 09:00N 21°38' E 127°10'2 0.8 30.1
2015-Jul-28 07:00N 21°37' E 127°09'8 0.7 30.3
2015-Jul-27 20:00N 21°30' E 127°05'0 0.5 29.0
2015-Jul-27 19:00N 21°30' E 127°04'4 0.4 29.1
2015-Jul-27 09:00N 21°31' E 127°00'3 0.7 30.0
2015-Jul-27 05:00N 21°31' E 126°57'5 0.8 29.9
2015-Jul-26 23:00N 21°31' E 126°52'0 0.0 28.9
2015-Jul-26 22:00N 21°31' E 126°52'1 0.6 28.9
2015-Jul-26 21:00N 21°31' E 126°53'1 0.9 28.9
2015-Jul-26 20:00N 21°31' E 126°52'1 0.2 28.9
2015-Jul-26 17:00N 21°31' E 126°51'0 0.0 29.0
2015-Jul-26 16:00N 21°31' E 126°51'2 0.6 29.0
2015-Jul-26 13:00N 21°33' E 126°52'1 0.5 29.1
2015-Jul-26 12:00N 21°33' E 126°53'3 0.9 29.1
2015-Jul-26 09:00N 21°36' E 126°52'1 0.7 29.2
2015-Jul-26 07:00N 21°37' E 126°51'2 1.2 29.2
2015-Jul-26 05:00N 21°39' E 126°50'3 0.5 29.1
2015-Jul-25 22:00N 21°41' E 126°47'2 0.6 28.8
2015-Jul-25 18:00N 21°43' E 126°48'0 0.1 28.9
2015-Jul-25 17:00N 21°43' E 126°48'2 0.6 28.9
2015-Jul-25 13:00N 21°45' E 126°48'3 0.7 29.0
2015-Jul-25 09:00N 21°48' E 126°47'0 0.0 29.5
2015-Jul-25 08:00N 21°48' E 126°47'0 0.2 29.6
2015-Jul-25 07:00N 21°48' E 126°47'1 0.9 29.7
2015-Jul-25 06:00N 21°49' E 126°47'0 0.0 29.7
2015-Jul-25 05:00N 21°49' E 126°47'4 0.6 29.7
2015-Jul-24 22:00N 21°53' E 126°49'0 0.0 29.0
2015-Jul-24 21:00N 21°53' E 126°49'1 0.5 29.0
2015-Jul-24 18:00N 21°54' E 126°50'0 0.0 29.1
2015-Jul-24 17:00N 21°54' E 126°50'   29.2

Dump ship's entire track history